Terminal Aerodrome Forecast
Issued by NWS Tampa Bay Area, FL

Home | Current Version | Previous Version | Text Only | Print | Product List | Glossary On
Versions: 1 2 3 4 5 6 7 8 9 10 11 12 13 14 15 16 17 18 19 20 21 22 23 24 25
000
FTUS42 KTBW 251700 RRA
TAFFMY
TAF
KFMY 251750Z 2518/2618 18012KT P6SM VCSH SCT025 BKN035 OVC060
     FM252100 19014KT P6SM VCSH SCT005 OVC045
     FM260000 19009KT 6SM -RA VCTS SCT015CB OVC050
     FM260700 23012KT 5SM -RA BR OVC015
     FM261100 32015G25KT 4SM -RA BR SCT005 BKN015 OVC040
     FM261400 35015G25KT P6SM -RA SCT010 OVC060=

USA.gov is the U.S. government's official web portal to all federal, state and local government web resources and services.